sensor_id;sensor_type;location;lat;lon;timestamp;P1;durP1;ratioP1;P2;durP2;ratioP2
56631;SDS011;42503;39.928;-75.152;2022-09-17T00:01:00;10.60;;;2.50;;
56631;SDS011;42503;39.928;-75.152;2022-09-17T00:03:06;7.72;;;2.10;;
56631;SDS011;42503;39.928;-75.152;2022-09-17T00:05:09;5.82;;;2.20;;
56631;SDS011;42503;39.928;-75.152;2022-09-17T00:07:10;7.75;;;2.15;;
56631;SDS011;42503;39.928;-75.152;2022-09-17T00:09:17;3.53;;;1.92;;
56631;SDS011;42503;39.928;-75.152;2022-09-17T00:11:28;7.90;;;2.10;;
56631;SDS011;42503;39.928;-75.152;2022-09-17T00:13:34;6.75;;;2.20;;
56631;SDS011;42503;39.928;-75.152;2022-09-17T00:15:42;6.25;;;1.85;;
56631;SDS011;42503;39.928;-75.152;2022-09-17T00:17:45;6.38;;;2.08;;
56631;SDS011;42503;39.928;-75.152;2022-09-17T00:19:46;9.43;;;1.85;;
56631;SDS011;42503;39.928;-75.152;2022-09-17T00:21:49;15.38;;;2.85;;
56631;SDS011;42503;39.928;-75.152;2022-09-17T00:23:52;8.48;;;2.72;;
56631;SDS011;42503;39.928;-75.152;2022-09-17T00:26:05;8.13;;;2.75;;
56631;SDS011;42503;39.928;-75.152;2022-09-17T00:28:24;6.32;;;2.60;;
56631;SDS011;42503;39.928;-75.152;2022-09-17T00:30:26;8.05;;;2.15;;
56631;SDS011;42503;39.928;-75.152;2022-09-17T00:32:27;7.57;;;2.20;;
56631;SDS011;42503;39.928;-75.152;2022-09-17T00:34:29;4.85;;;2.15;;
56631;SDS011;42503;39.928;-75.152;2022-09-17T00:36:33;3.90;;;2.45;;
56631;SDS011;42503;39.928;-75.152;2022-09-17T00:38:36;4.43;;;2.15;;
56631;SDS011;42503;39.928;-75.152;2022-09-17T00:40:40;3.95;;;2.42;;
56631;SDS011;42503;39.928;-75.152;2022-09-17T00:42:41;5.72;;;2.20;;
56631;SDS011;42503;39.928;-75.152;2022-09-17T00:44:46;5.10;;;2.45;;
56631;SDS011;42503;39.928;-75.152;2022-09-17T00:46:50;4.63;;;2.08;;
56631;SDS011;42503;39.928;-75.152;2022-09-17T00:48:53;4.90;;;2.20;;
56631;SDS011;42503;39.928;-75.152;2022-09-17T00:50:59;6.43;;;2.42;;
56631;SDS011;42503;39.928;-75.152;2022-09-17T00:55:18;6.25;;;2.53;;
56631;SDS011;42503;39.928;-75.152;2022-09-17T00:57:23;4.47;;;3.10;;
56631;SDS011;42503;39.928;-75.152;2022-09-17T00:59:28;5.13;;;3.38;;
56631;SDS011;42503;39.928;-75.152;2022-09-17T01:01:32;6.53;;;2.45;;
56631;SDS011;42503;39.928;-75.152;2022-09-17T01:03:34;6.72;;;2.80;;
56631;SDS011;42503;39.928;-75.152;2022-09-17T01:06:04;3.58;;;2.92;;
56631;SDS011;42503;39.928;-75.152;2022-09-17T01:08:24;4.60;;;2.97;;
56631;SDS011;42503;39.928;-75.152;2022-09-17T01:25:43;5.32;;;3.08;;
56631;SDS011;42503;39.928;-75.152;2022-09-17T01:28:13;4.45;;;2.90;;
56631;SDS011;42503;39.928;-75.152;2022-09-17T01:32:53;4.20;;;2.67;;
56631;SDS011;42503;39.928;-75.152;2022-09-17T01:37:35;4.93;;;3.05;;
56631;SDS011;42503;39.928;-75.152;2022-09-17T01:42:15;5.72;;;3.30;;
56631;SDS011;42503;39.928;-75.152;2022-09-17T01:44:30;4.72;;;3.13;;
56631;SDS011;42503;39.928;-75.152;2022-09-17T01:46:54;7.18;;;3.22;;
56631;SDS011;42503;39.928;-75.152;2022-09-17T01:49:06;7.22;;;4.03;;
56631;SDS011;42503;39.928;-75.152;2022-09-17T01:51:11;7.68;;;2.80;;
56631;SDS011;42503;39.928;-75.152;2022-09-17T01:53:18;5.95;;;3.28;;
56631;SDS011;42503;39.928;-75.152;2022-09-17T01:55:25;7.03;;;3.60;;
56631;SDS011;42503;39.928;-75.152;2022-09-17T01:57:33;5.47;;;3.60;;
56631;SDS011;42503;39.928;-75.152;2022-09-17T02:00:04;7.28;;;4.18;;
56631;SDS011;42503;39.928;-75.152;2022-09-17T02:02:12;4.75;;;3.47;;
56631;SDS011;42503;39.928;-75.152;2022-09-17T02:04:37;8.38;;;3.88;;
56631;SDS011;42503;39.928;-75.152;2022-09-17T02:06:48;11.18;;;4.13;;
56631;SDS011;42503;39.928;-75.152;2022-09-17T02:08:53;10.68;;;4.57;;
56631;SDS011;42503;39.928;-75.152;2022-09-17T02:11:02;12.27;;;4.80;;
56631;SDS011;42503;39.928;-75.152;2022-09-17T02:13:21;9.77;;;4.13;;
56631;SDS011;42503;39.928;-75.152;2022-09-17T02:15:35;9.40;;;4.45;;
56631;SDS011;42503;39.928;-75.152;2022-09-17T02:17:51;8.75;;;3.70;;
56631;SDS011;42503;39.928;-75.152;2022-09-17T02:19:58;5.85;;;3.90;;
56631;SDS011;42503;39.928;-75.152;2022-09-17T02:24:22;6.28;;;3.80;;
56631;SDS011;42503;39.928;-75.152;2022-09-17T02:26:37;6.78;;;3.78;;
56631;SDS011;42503;39.928;-75.152;2022-09-17T02:28:56;9.85;;;3.70;;
56631;SDS011;42503;39.928;-75.152;2022-09-17T02:31:02;8.40;;;3.85;;
56631;SDS011;42503;39.928;-75.152;2022-09-17T02:33:04;7.53;;;3.83;;
56631;SDS011;42503;39.928;-75.152;2022-09-17T02:35:09;5.35;;;3.25;;
56631;SDS011;42503;39.928;-75.152;2022-09-17T02:37:13;6.18;;;3.47;;
56631;SDS011;42503;39.928;-75.152;2022-09-17T02:39:15;6.45;;;3.83;;
56631;SDS011;42503;39.928;-75.152;2022-09-17T02:41:18;5.78;;;4.00;;
56631;SDS011;42503;39.928;-75.152;2022-09-17T02:43:29;6.97;;;3.50;;
56631;SDS011;42503;39.928;-75.152;2022-09-17T02:52:48;6.57;;;3.60;;
56631;SDS011;42503;39.928;-75.152;2022-09-17T02:59:31;5.13;;;3.55;;
56631;SDS011;42503;39.928;-75.152;2022-09-17T03:01:43;7.43;;;4.32;;
56631;SDS011;42503;39.928;-75.152;2022-09-17T03:03:50;7.85;;;3.85;;
56631;SDS011;42503;39.928;-75.152;2022-09-17T03:05:55;6.53;;;3.78;;
56631;SDS011;42503;39.928;-75.152;2022-09-17T03:07:58;4.25;;;3.42;;
56631;SDS011;42503;39.928;-75.152;2022-09-17T03:10:03;5.10;;;3.28;;
56631;SDS011;42503;39.928;-75.152;2022-09-17T03:12:05;5.45;;;3.80;;
56631;SDS011;42503;39.928;-75.152;2022-09-17T03:14:07;4.75;;;3.42;;
56631;SDS011;42503;39.928;-75.152;2022-09-17T03:16:20;5.75;;;3.47;;
56631;SDS011;42503;39.928;-75.152;2022-09-17T03:18:21;7.07;;;3.83;;
56631;SDS011;42503;39.928;-75.152;2022-09-17T03:20:25;4.95;;;3.42;;
56631;SDS011;42503;39.928;-75.152;2022-09-17T03:22:27;5.97;;;3.50;;
56631;SDS011;42503;39.928;-75.152;2022-09-17T03:24:28;5.97;;;3.55;;
56631;SDS011;42503;39.928;-75.152;2022-09-17T03:26:30;4.95;;;3.30;;
56631;SDS011;42503;39.928;-75.152;2022-09-17T03:28:34;6.93;;;3.15;;
56631;SDS011;42503;39.928;-75.152;2022-09-17T03:30:38;5.03;;;3.78;;
56631;SDS011;42503;39.928;-75.152;2022-09-17T03:32:39;4.55;;;3.40;;
56631;SDS011;42503;39.928;-75.152;2022-09-17T03:34:40;4.57;;;3.58;;
56631;SDS011;42503;39.928;-75.152;2022-09-17T03:36:42;5.22;;;3.63;;
56631;SDS011;42503;39.928;-75.152;2022-09-17T03:38:43;5.47;;;3.60;;
56631;SDS011;42503;39.928;-75.152;2022-09-17T03:40:55;6.80;;;3.95;;
56631;SDS011;42503;39.928;-75.152;2022-09-17T03:43:03;7.57;;;4.18;;
56631;SDS011;42503;39.928;-75.152;2022-09-17T03:45:05;7.30;;;3.88;;
56631;SDS011;42503;39.928;-75.152;2022-09-17T03:47:10;5.75;;;3.63;;
56631;SDS011;42503;39.928;-75.152;2022-09-17T03:49:12;6.88;;;4.35;;
56631;SDS011;42503;39.928;-75.152;2022-09-17T03:51:13;5.57;;;4.25;;
56631;SDS011;42503;39.928;-75.152;2022-09-17T03:53:15;6.30;;;3.65;;
56631;SDS011;42503;39.928;-75.152;2022-09-17T03:55:16;4.97;;;3.75;;
56631;SDS011;42503;39.928;-75.152;2022-09-17T03:57:18;5.40;;;3.72;;
56631;SDS011;42503;39.928;-75.152;2022-09-17T03:59:19;6.65;;;3.67;;
56631;SDS011;42503;39.928;-75.152;2022-09-17T04:01:21;5.03;;;3.70;;
56631;SDS011;42503;39.928;-75.152;2022-09-17T04:03:22;4.90;;;3.53;;
56631;SDS011;42503;39.928;-75.152;2022-09-17T04:05:24;4.57;;;3.53;;
56631;SDS011;42503;39.928;-75.152;2022-09-17T04:07:25;7.15;;;4.18;;
56631;SDS011;42503;39.928;-75.152;2022-09-17T04:09:27;5.82;;;3.28;;
56631;SDS011;42503;39.928;-75.152;2022-09-17T04:11:28;7.20;;;3.63;;
56631;SDS011;42503;39.928;-75.152;2022-09-17T04:13:29;4.82;;;3.65;;
56631;SDS011;42503;39.928;-75.152;2022-09-17T04:15:31;4.28;;;3.80;;
56631;SDS011;42503;39.928;-75.152;2022-09-17T04:17:32;5.10;;;3.35;;
56631;SDS011;42503;39.928;-75.152;2022-09-17T04:19:33;5.28;;;3.67;;
56631;SDS011;42503;39.928;-75.152;2022-09-17T04:21:35;4.70;;;3.70;;
56631;SDS011;42503;39.928;-75.152;2022-09-17T04:23:36;4.00;;;3.50;;
56631;SDS011;42503;39.928;-75.152;2022-09-17T04:25:40;3.63;;;3.20;;
56631;SDS011;42503;39.928;-75.152;2022-09-17T04:27:42;6.28;;;3.80;;
56631;SDS011;42503;39.928;-75.152;2022-09-17T04:29:44;3.83;;;3.17;;
56631;SDS011;42503;39.928;-75.152;2022-09-17T04:31:45;5.88;;;3.42;;
56631;SDS011;42503;39.928;-75.152;2022-09-17T04:33:47;5.15;;;3.60;;
56631;SDS011;42503;39.928;-75.152;2022-09-17T04:35:48;3.83;;;3.40;;
56631;SDS011;42503;39.928;-75.152;2022-09-17T04:37:52;4.80;;;3.63;;
56631;SDS011;42503;39.928;-75.152;2022-09-17T04:39:55;4.78;;;4.07;;
56631;SDS011;42503;39.928;-75.152;2022-09-17T04:41:57;5.10;;;3.88;;
56631;SDS011;42503;39.928;-75.152;2022-09-17T04:43:58;4.53;;;3.40;;
56631;SDS011;42503;39.928;-75.152;2022-09-17T04:46:02;5.60;;;3.70;;
56631;SDS011;42503;39.928;-75.152;2022-09-17T04:48:03;4.60;;;3.47;;
56631;SDS011;42503;39.928;-75.152;2022-09-17T04:50:05;7.38;;;3.70;;
56631;SDS011;42503;39.928;-75.152;2022-09-17T04:52:06;6.15;;;3.47;;
56631;SDS011;42503;39.928;-75.152;2022-09-17T04:54:08;4.18;;;3.63;;
56631;SDS011;42503;39.928;-75.152;2022-09-17T04:56:09;4.75;;;3.75;;
56631;SDS011;42503;39.928;-75.152;2022-09-17T04:58:10;6.35;;;3.47;;
56631;SDS011;42503;39.928;-75.152;2022-09-17T05:00:12;5.03;;;3.40;;
56631;SDS011;42503;39.928;-75.152;2022-09-17T05:02:14;7.55;;;4.30;;
56631;SDS011;42503;39.928;-75.152;2022-09-17T05:04:16;9.23;;;4.30;;
56631;SDS011;42503;39.928;-75.152;2022-09-17T05:06:17;46.08;;;6.93;;
56631;SDS011;42503;39.928;-75.152;2022-09-17T05:08:18;13.95;;;4.72;;
56631;SDS011;42503;39.928;-75.152;2022-09-17T05:10:25;6.75;;;3.92;;
56631;SDS011;42503;39.928;-75.152;2022-09-17T05:12:29;6.20;;;4.63;;
56631;SDS011;42503;39.928;-75.152;2022-09-17T05:14:33;8.23;;;4.40;;
56631;SDS011;42503;39.928;-75.152;2022-09-17T05:16:37;7.22;;;4.05;;
56631;SDS011;42503;39.928;-75.152;2022-09-17T05:18:38;7.40;;;4.30;;
56631;SDS011;42503;39.928;-75.152;2022-09-17T05:20:40;5.50;;;3.85;;
56631;SDS011;42503;39.928;-75.152;2022-09-17T05:22:46;7.45;;;4.15;;
56631;SDS011;42503;39.928;-75.152;2022-09-17T05:24:49;8.10;;;3.88;;
56631;SDS011;42503;39.928;-75.152;2022-09-17T05:26:50;6.32;;;3.67;;
56631;SDS011;42503;39.928;-75.152;2022-09-17T05:28:51;4.88;;;3.85;;
56631;SDS011;42503;39.928;-75.152;2022-09-17T05:30:52;5.50;;;3.72;;
56631;SDS011;42503;39.928;-75.152;2022-09-17T05:32:57;7.15;;;4.00;;
56631;SDS011;42503;39.928;-75.152;2022-09-17T05:35:00;9.45;;;4.28;;
56631;SDS011;42503;39.928;-75.152;2022-09-17T05:37:01;3.97;;;3.58;;
56631;SDS011;42503;39.928;-75.152;2022-09-17T05:39:02;5.68;;;3.95;;
56631;SDS011;42503;39.928;-75.152;2022-09-17T05:41:04;4.88;;;3.80;;
56631;SDS011;42503;39.928;-75.152;2022-09-17T05:43:06;6.55;;;3.72;;
56631;SDS011;42503;39.928;-75.152;2022-09-17T05:45:10;5.53;;;4.15;;
56631;SDS011;42503;39.928;-75.152;2022-09-17T05:47:11;6.05;;;4.20;;
56631;SDS011;42503;39.928;-75.152;2022-09-17T05:49:13;6.57;;;3.70;;
56631;SDS011;42503;39.928;-75.152;2022-09-17T05:51:17;5.93;;;3.60;;
56631;SDS011;42503;39.928;-75.152;2022-09-17T05:53:18;6.10;;;4.15;;
56631;SDS011;42503;39.928;-75.152;2022-09-17T05:55:21;5.78;;;3.70;;
56631;SDS011;42503;39.928;-75.152;2022-09-17T05:57:23;6.70;;;4.13;;
56631;SDS011;42503;39.928;-75.152;2022-09-17T05:59:24;5.90;;;3.83;;
56631;SDS011;42503;39.928;-75.152;2022-09-17T06:01:26;6.50;;;4.32;;
56631;SDS011;42503;39.928;-75.152;2022-09-17T06:03:30;7.57;;;4.55;;
56631;SDS011;42503;39.928;-75.152;2022-09-17T06:05:31;8.57;;;4.40;;
56631;SDS011;42503;39.928;-75.152;2022-09-17T06:07:36;9.07;;;4.87;;
56631;SDS011;42503;39.928;-75.152;2022-09-17T06:09:38;10.73;;;5.72;;
56631;SDS011;42503;39.928;-75.152;2022-09-17T06:11:42;12.52;;;6.35;;
56631;SDS011;42503;39.928;-75.152;2022-09-17T06:13:44;10.50;;;5.97;;
56631;SDS011;42503;39.928;-75.152;2022-09-17T06:15:52;23.58;;;8.90;;
56631;SDS011;42503;39.928;-75.152;2022-09-17T06:17:53;15.90;;;6.93;;
56631;SDS011;42503;39.928;-75.152;2022-09-17T06:19:55;19.55;;;8.57;;
56631;SDS011;42503;39.928;-75.152;2022-09-17T06:21:56;24.08;;;10.32;;
56631;SDS011;42503;39.928;-75.152;2022-09-17T06:23:57;75.65;;;28.05;;
56631;SDS011;42503;39.928;-75.152;2022-09-17T06:26:01;40.55;;;14.38;;
56631;SDS011;42503;39.928;-75.152;2022-09-17T06:28:03;47.40;;;14.57;;
56631;SDS011;42503;39.928;-75.152;2022-09-17T06:30:08;56.25;;;23.65;;
56631;SDS011;42503;39.928;-75.152;2022-09-17T06:32:09;67.70;;;24.13;;
56631;SDS011;42503;39.928;-75.152;2022-09-17T06:34:12;52.08;;;20.02;;
56631;SDS011;42503;39.928;-75.152;2022-09-17T06:36:14;59.40;;;21.88;;
56631;SDS011;42503;39.928;-75.152;2022-09-17T06:38:15;60.85;;;21.85;;
56631;SDS011;42503;39.928;-75.152;2022-09-17T06:40:19;62.63;;;24.88;;
56631;SDS011;42503;39.928;-75.152;2022-09-17T06:42:22;60.38;;;23.23;;
56631;SDS011;42503;39.928;-75.152;2022-09-17T06:44:28;81.95;;;30.23;;
56631;SDS011;42503;39.928;-75.152;2022-09-17T06:46:32;72.55;;;30.17;;
56631;SDS011;42503;39.928;-75.152;2022-09-17T06:48:34;99.05;;;38.40;;
56631;SDS011;42503;39.928;-75.152;2022-09-17T06:50:36;79.80;;;32.47;;
56631;SDS011;42503;39.928;-75.152;2022-09-17T06:52:37;95.13;;;37.40;;
56631;SDS011;42503;39.928;-75.152;2022-09-17T06:54:38;113.85;;;42.08;;
56631;SDS011;42503;39.928;-75.152;2022-09-17T06:56:44;83.95;;;33.35;;
56631;SDS011;42503;39.928;-75.152;2022-09-17T06:58:46;86.22;;;35.15;;
56631;SDS011;42503;39.928;-75.152;2022-09-17T07:00:47;68.50;;;26.92;;
56631;SDS011;42503;39.928;-75.152;2022-09-17T07:02:55;47.22;;;19.60;;
56631;SDS011;42503;39.928;-75.152;2022-09-17T07:04:58;45.00;;;18.33;;
56631;SDS011;42503;39.928;-75.152;2022-09-17T07:06:59;52.30;;;20.98;;
56631;SDS011;42503;39.928;-75.152;2022-09-17T07:09:04;51.75;;;21.45;;
56631;SDS011;42503;39.928;-75.152;2022-09-17T07:11:09;59.75;;;25.67;;
56631;SDS011;42503;39.928;-75.152;2022-09-17T07:13:10;54.60;;;22.40;;
56631;SDS011;42503;39.928;-75.152;2022-09-17T07:15:12;55.58;;;22.58;;
56631;SDS011;42503;39.928;-75.152;2022-09-17T07:17:16;58.10;;;24.45;;
56631;SDS011;42503;39.928;-75.152;2022-09-17T07:19:17;72.00;;;28.30;;
56631;SDS011;42503;39.928;-75.152;2022-09-17T07:21:18;64.60;;;27.30;;
56631;SDS011;42503;39.928;-75.152;2022-09-17T07:23:21;63.58;;;27.17;;
56631;SDS011;42503;39.928;-75.152;2022-09-17T07:25:24;69.07;;;27.02;;
56631;SDS011;42503;39.928;-75.152;2022-09-17T07:27:27;70.22;;;27.85;;
56631;SDS011;42503;39.928;-75.152;2022-09-17T07:29:29;62.95;;;24.83;;
56631;SDS011;42503;39.928;-75.152;2022-09-17T07:31:31;67.50;;;28.75;;
56631;SDS011;42503;39.928;-75.152;2022-09-17T07:33:33;68.03;;;25.83;;
56631;SDS011;42503;39.928;-75.152;2022-09-17T07:35:36;59.92;;;25.48;;
56631;SDS011;42503;39.928;-75.152;2022-09-17T07:37:37;61.05;;;24.67;;
56631;SDS011;42503;39.928;-75.152;2022-09-17T07:39:45;64.70;;;25.30;;
56631;SDS011;42503;39.928;-75.152;2022-09-17T07:41:49;58.47;;;26.00;;
56631;SDS011;42503;39.928;-75.152;2022-09-17T07:43:53;72.85;;;28.45;;
56631;SDS011;42503;39.928;-75.152;2022-09-17T07:45:58;60.38;;;25.45;;
56631;SDS011;42503;39.928;-75.152;2022-09-17T07:48:00;59.38;;;25.38;;
56631;SDS011;42503;39.928;-75.152;2022-09-17T07:50:04;65.43;;;26.00;;
56631;SDS011;42503;39.928;-75.152;2022-09-17T07:52:09;69.75;;;27.55;;
56631;SDS011;42503;39.928;-75.152;2022-09-17T07:54:13;76.13;;;29.77;;
56631;SDS011;42503;39.928;-75.152;2022-09-17T07:56:14;73.85;;;31.30;;
56631;SDS011;42503;39.928;-75.152;2022-09-17T07:58:16;71.22;;;31.60;;
56631;SDS011;42503;39.928;-75.152;2022-09-17T08:00:20;80.85;;;32.47;;
56631;SDS011;42503;39.928;-75.152;2022-09-17T08:02:22;70.40;;;28.55;;
56631;SDS011;42503;39.928;-75.152;2022-09-17T08:04:23;76.07;;;31.65;;
56631;SDS011;42503;39.928;-75.152;2022-09-17T08:06:25;73.07;;;30.77;;
56631;SDS011;42503;39.928;-75.152;2022-09-17T08:08:28;100.38;;;38.97;;
56631;SDS011;42503;39.928;-75.152;2022-09-17T08:10:31;93.25;;;37.25;;
56631;SDS011;42503;39.928;-75.152;2022-09-17T08:12:33;46.38;;;22.20;;
56631;SDS011;42503;39.928;-75.152;2022-09-17T08:14:37;72.53;;;30.08;;
56631;SDS011;42503;39.928;-75.152;2022-09-17T08:16:39;61.90;;;26.70;;
56631;SDS011;42503;39.928;-75.152;2022-09-17T08:18:41;64.30;;;27.80;;
56631;SDS011;42503;39.928;-75.152;2022-09-17T08:20:43;81.65;;;35.30;;
56631;SDS011;42503;39.928;-75.152;2022-09-17T08:22:44;63.92;;;26.38;;
56631;SDS011;42503;39.928;-75.152;2022-09-17T08:24:48;61.13;;;27.67;;
56631;SDS011;42503;39.928;-75.152;2022-09-17T08:26:50;69.70;;;29.43;;
56631;SDS011;42503;39.928;-75.152;2022-09-17T08:28:54;56.95;;;25.88;;
56631;SDS011;42503;39.928;-75.152;2022-09-17T08:31:03;54.00;;;24.50;;
56631;SDS011;42503;39.928;-75.152;2022-09-17T08:33:06;59.88;;;27.63;;
56631;SDS011;42503;39.928;-75.152;2022-09-17T08:35:07;65.70;;;27.27;;
56631;SDS011;42503;39.928;-75.152;2022-09-17T08:37:08;64.70;;;27.77;;
56631;SDS011;42503;39.928;-75.152;2022-09-17T08:39:10;55.28;;;24.58;;
56631;SDS011;42503;39.928;-75.152;2022-09-17T08:41:48;58.20;;;27.17;;
56631;SDS011;42503;39.928;-75.152;2022-09-17T08:46:07;56.13;;;26.13;;
56631;SDS011;42503;39.928;-75.152;2022-09-17T08:48:12;61.17;;;26.45;;
56631;SDS011;42503;39.928;-75.152;2022-09-17T08:50:30;56.30;;;24.65;;
56631;SDS011;42503;39.928;-75.152;2022-09-17T08:52:45;62.78;;;26.92;;
56631;SDS011;42503;39.928;-75.152;2022-09-17T09:06:35;55.22;;;23.65;;
56631;SDS011;42503;39.928;-75.152;2022-09-17T09:11:05;48.75;;;23.48;;
56631;SDS011;42503;39.928;-75.152;2022-09-17T09:13:14;52.25;;;23.30;;
56631;SDS011;42503;39.928;-75.152;2022-09-17T09:17:43;43.95;;;19.77;;
56631;SDS011;42503;39.928;-75.152;2022-09-17T09:19:49;49.08;;;23.30;;
56631;SDS011;42503;39.928;-75.152;2022-09-17T09:24:21;45.78;;;21.70;;
56631;SDS011;42503;39.928;-75.152;2022-09-17T09:26:43;47.25;;;21.95;;
56631;SDS011;42503;39.928;-75.152;2022-09-17T09:29:02;43.38;;;21.25;;
56631;SDS011;42503;39.928;-75.152;2022-09-17T09:33:30;50.00;;;22.13;;
56631;SDS011;42503;39.928;-75.152;2022-09-17T09:35:38;48.33;;;21.67;;
56631;SDS011;42503;39.928;-75.152;2022-09-17T09:39:52;45.55;;;20.77;;
56631;SDS011;42503;39.928;-75.152;2022-09-17T09:42:04;44.47;;;21.23;;
56631;SDS011;42503;39.928;-75.152;2022-09-17T09:44:14;39.47;;;19.40;;
56631;SDS011;42503;39.928;-75.152;2022-09-17T09:55:41;39.42;;;19.08;;
56631;SDS011;42503;39.928;-75.152;2022-09-17T09:58:04;41.47;;;18.27;;
56631;SDS011;42503;39.928;-75.152;2022-09-17T10:00:30;33.90;;;16.75;;
56631;SDS011;42503;39.928;-75.152;2022-09-17T10:02:36;38.58;;;17.67;;
56631;SDS011;42503;39.928;-75.152;2022-09-17T10:04:37;38.42;;;17.55;;
56631;SDS011;42503;39.928;-75.152;2022-09-17T10:06:38;38.10;;;17.42;;
56631;SDS011;42503;39.928;-75.152;2022-09-17T10:09:25;36.85;;;17.58;;
56631;SDS011;42503;39.928;-75.152;2022-09-17T10:11:05;35.47;;;16.70;;
56631;SDS011;42503;39.928;-75.152;2022-09-17T10:13:19;37.95;;;17.17;;
56631;SDS011;42503;39.928;-75.152;2022-09-17T10:15:24;36.17;;;16.98;;
56631;SDS011;42503;39.928;-75.152;2022-09-17T10:17:27;37.55;;;17.08;;
56631;SDS011;42503;39.928;-75.152;2022-09-17T10:19:29;37.83;;;16.73;;
56631;SDS011;42503;39.928;-75.152;2022-09-17T10:21:33;31.92;;;13.88;;
56631;SDS011;42503;39.928;-75.152;2022-09-17T10:23:39;35.78;;;15.85;;
56631;SDS011;42503;39.928;-75.152;2022-09-17T10:25:43;30.98;;;15.73;;
56631;SDS011;42503;39.928;-75.152;2022-09-17T10:27:45;35.35;;;16.08;;
56631;SDS011;42503;39.928;-75.152;2022-09-17T10:29:51;28.77;;;14.95;;
56631;SDS011;42503;39.928;-75.152;2022-09-17T10:32:04;30.92;;;14.85;;
56631;SDS011;42503;39.928;-75.152;2022-09-17T10:34:10;29.50;;;15.20;;
56631;SDS011;42503;39.928;-75.152;2022-09-17T10:38:45;32.53;;;13.60;;
56631;SDS011;42503;39.928;-75.152;2022-09-17T10:40:47;30.52;;;14.25;;
56631;SDS011;42503;39.928;-75.152;2022-09-17T10:42:49;31.63;;;13.35;;
56631;SDS011;42503;39.928;-75.152;2022-09-17T10:45:23;24.65;;;11.43;;
56631;SDS011;42503;39.928;-75.152;2022-09-17T10:47:27;28.30;;;13.02;;
56631;SDS011;42503;39.928;-75.152;2022-09-17T10:49:45;25.65;;;12.48;;
56631;SDS011;42503;39.928;-75.152;2022-09-17T10:51:49;31.02;;;14.98;;
56631;SDS011;42503;39.928;-75.152;2022-09-17T10:53:55;26.05;;;12.00;;
56631;SDS011;42503;39.928;-75.152;2022-09-17T10:58:11;26.13;;;12.30;;
56631;SDS011;42503;39.928;-75.152;2022-09-17T11:00:18;23.83;;;11.52;;
56631;SDS011;42503;39.928;-75.152;2022-09-17T11:06:49;22.33;;;10.35;;
56631;SDS011;42503;39.928;-75.152;2022-09-17T11:14:15;23.65;;;10.95;;
56631;SDS011;42503;39.928;-75.152;2022-09-17T11:28:00;17.40;;;9.07;;
56631;SDS011;42503;39.928;-75.152;2022-09-17T11:30:16;18.35;;;9.40;;
56631;SDS011;42503;39.928;-75.152;2022-09-17T11:34:41;16.35;;;8.98;;
56631;SDS011;42503;39.928;-75.152;2022-09-17T11:39:01;18.92;;;8.68;;
56631;SDS011;42503;39.928;-75.152;2022-09-17T11:41:29;13.73;;;7.15;;
56631;SDS011;42503;39.928;-75.152;2022-09-17T11:43:36;18.73;;;8.45;;
56631;SDS011;42503;39.928;-75.152;2022-09-17T11:45:59;15.13;;;7.68;;
56631;SDS011;42503;39.928;-75.152;2022-09-17T11:48:06;15.80;;;7.68;;
56631;SDS011;42503;39.928;-75.152;2022-09-17T11:52:41;14.15;;;7.53;;
56631;SDS011;42503;39.928;-75.152;2022-09-17T11:54:52;14.00;;;7.43;;
56631;SDS011;42503;39.928;-75.152;2022-09-17T11:57:37;12.07;;;7.00;;
56631;SDS011;42503;39.928;-75.152;2022-09-17T12:06:12;12.30;;;5.90;;
56631;SDS011;42503;39.928;-75.152;2022-09-17T12:10:50;11.90;;;6.63;;
56631;SDS011;42503;39.928;-75.152;2022-09-17T12:13:22;13.10;;;6.30;;
56631;SDS011;42503;39.928;-75.152;2022-09-17T12:15:48;12.07;;;6.72;;
56631;SDS011;42503;39.928;-75.152;2022-09-17T12:18:19;11.93;;;6.20;;
56631;SDS011;42503;39.928;-75.152;2022-09-17T12:20:38;13.10;;;6.90;;
56631;SDS011;42503;39.928;-75.152;2022-09-17T12:22:45;11.23;;;5.95;;
56631;SDS011;42503;39.928;-75.152;2022-09-17T12:24:51;14.10;;;6.28;;
56631;SDS011;42503;39.928;-75.152;2022-09-17T12:29:10;15.97;;;6.87;;
56631;SDS011;42503;39.928;-75.152;2022-09-17T12:31:39;11.52;;;6.03;;
56631;SDS011;42503;39.928;-75.152;2022-09-17T12:33:47;14.90;;;6.40;;
56631;SDS011;42503;39.928;-75.152;2022-09-17T12:36:05;9.30;;;5.45;;
56631;SDS011;42503;39.928;-75.152;2022-09-17T12:52:29;12.18;;;5.80;;
56631;SDS011;42503;39.928;-75.152;2022-09-17T12:59:19;8.20;;;4.60;;
56631;SDS011;42503;39.928;-75.152;2022-09-17T13:03:38;11.60;;;5.13;;
56631;SDS011;42503;39.928;-75.152;2022-09-17T13:08:07;10.13;;;5.57;;
56631;SDS011;42503;39.928;-75.152;2022-09-17T13:15:45;9.23;;;4.53;;
56631;SDS011;42503;39.928;-75.152;2022-09-17T13:17:59;7.40;;;4.53;;
56631;SDS011;42503;39.928;-75.152;2022-09-17T13:20:25;10.57;;;5.72;;
56631;SDS011;42503;39.928;-75.152;2022-09-17T13:22:43;9.30;;;5.38;;
56631;SDS011;42503;39.928;-75.152;2022-09-17T13:25:05;9.68;;;5.28;;
56631;SDS011;42503;39.928;-75.152;2022-09-17T13:27:24;8.48;;;4.75;;
56631;SDS011;42503;39.928;-75.152;2022-09-17T13:31:46;8.48;;;4.57;;
56631;SDS011;42503;39.928;-75.152;2022-09-17T13:35:52;7.72;;;4.57;;
56631;SDS011;42503;39.928;-75.152;2022-09-17T13:37:57;10.15;;;4.75;;
56631;SDS011;42503;39.928;-75.152;2022-09-17T13:40:03;8.23;;;4.40;;
56631;SDS011;42503;39.928;-75.152;2022-09-17T13:44:20;6.65;;;3.67;;
56631;SDS011;42503;39.928;-75.152;2022-09-17T13:46:26;7.13;;;4.43;;
56631;SDS011;42503;39.928;-75.152;2022-09-17T13:48:29;7.75;;;4.25;;
56631;SDS011;42503;39.928;-75.152;2022-09-17T13:50:39;13.18;;;4.25;;
56631;SDS011;42503;39.928;-75.152;2022-09-17T13:52:45;32.67;;;5.63;;
56631;SDS011;42503;39.928;-75.152;2022-09-17T13:54:49;17.85;;;4.68;;
56631;SDS011;42503;39.928;-75.152;2022-09-17T13:57:01;11.73;;;4.68;;
56631;SDS011;42503;39.928;-75.152;2022-09-17T13:59:19;10.40;;;3.95;;
56631;SDS011;42503;39.928;-75.152;2022-09-17T14:04:28;9.10;;;4.00;;
56631;SDS011;42503;39.928;-75.152;2022-09-17T14:10:43;8.43;;;3.55;;
56631;SDS011;42503;39.928;-75.152;2022-09-17T14:12:53;6.93;;;3.28;;
56631;SDS011;42503;39.928;-75.152;2022-09-17T14:14:57;8.10;;;3.10;;
56631;SDS011;42503;39.928;-75.152;2022-09-17T14:16:59;7.20;;;3.45;;
56631;SDS011;42503;39.928;-75.152;2022-09-17T14:23:12;8.27;;;3.58;;
56631;SDS011;42503;39.928;-75.152;2022-09-17T14:25:15;8.23;;;4.32;;
56631;SDS011;42503;39.928;-75.152;2022-09-17T14:30:15;15.65;;;4.45;;
56631;SDS011;42503;39.928;-75.152;2022-09-17T14:32:30;9.60;;;4.57;;
56631;SDS011;42503;39.928;-75.152;2022-09-17T14:34:37;12.88;;;6.30;;
56631;SDS011;42503;39.928;-75.152;2022-09-17T14:36:41;10.60;;;4.35;;
56631;SDS011;42503;39.928;-75.152;2022-09-17T14:38:46;8.60;;;3.33;;
56631;SDS011;42503;39.928;-75.152;2022-09-17T14:40:58;8.43;;;3.22;;
56631;SDS011;42503;39.928;-75.152;2022-09-17T14:43:04;8.20;;;3.53;;
56631;SDS011;42503;39.928;-75.152;2022-09-17T14:45:16;5.57;;;3.38;;
56631;SDS011;42503;39.928;-75.152;2022-09-17T14:47:21;9.35;;;3.08;;
56631;SDS011;42503;39.928;-75.152;2022-09-17T14:49:27;7.15;;;3.20;;
56631;SDS011;42503;39.928;-75.152;2022-09-17T14:51:37;7.00;;;3.40;;
56631;SDS011;42503;39.928;-75.152;2022-09-17T14:53:42;7.80;;;3.75;;
56631;SDS011;42503;39.928;-75.152;2022-09-17T14:55:50;11.07;;;3.92;;
56631;SDS011;42503;39.928;-75.152;2022-09-17T14:58:00;6.68;;;3.60;;